sensor_id;sensor_type;location;lat;lon;timestamp;P1;durP1;ratioP1;P2;durP2;ratioP2
428;SDS011;201;48.758;9.290;2023-01-28T00:00:01;0.20;;;0.10;;
428;SDS011;201;48.758;9.290;2023-01-28T00:02:28;0.20;;;0.10;;
428;SDS011;201;48.758;9.290;2023-01-28T00:04:54;0.22;;;0.13;;
428;SDS011;201;48.758;9.290;2023-01-28T00:07:20;0.20;;;0.10;;
428;SDS011;201;48.758;9.290;2023-01-28T00:09:45;0.20;;;0.10;;
428;SDS011;201;48.758;9.290;2023-01-28T00:12:11;0.20;;;0.10;;
428;SDS011;201;48.758;9.290;2023-01-28T00:14:36;0.20;;;0.10;;
428;SDS011;201;48.758;9.290;2023-01-28T00:17:03;0.20;;;0.10;;
428;SDS011;201;48.758;9.290;2023-01-28T00:19:30;0.20;;;0.10;;
428;SDS011;201;48.758;9.290;2023-01-28T00:21:55;0.20;;;0.10;;
428;SDS011;201;48.758;9.290;2023-01-28T00:24:20;0.20;;;0.10;;
428;SDS011;201;48.758;9.290;2023-01-28T00:26:46;0.20;;;0.10;;
428;SDS011;201;48.758;9.290;2023-01-28T00:29:12;0.20;;;0.10;;
428;SDS011;201;48.758;9.290;2023-01-28T00:31:37;0.20;;;0.10;;
428;SDS011;201;48.758;9.290;2023-01-28T00:34:04;0.20;;;0.10;;
428;SDS011;201;48.758;9.290;2023-01-28T00:36:30;0.20;;;0.10;;
428;SDS011;201;48.758;9.290;2023-01-28T00:38:56;0.20;;;0.10;;
428;SDS011;201;48.758;9.290;2023-01-28T00:41:24;0.20;;;0.10;;
428;SDS011;201;48.758;9.290;2023-01-28T00:43:51;0.20;;;0.10;;
428;SDS011;201;48.758;9.290;2023-01-28T00:46:18;0.20;;;0.10;;
428;SDS011;201;48.758;9.290;2023-01-28T00:48:44;0.20;;;0.10;;
428;SDS011;201;48.758;9.290;2023-01-28T00:51:10;0.13;;;0.07;;
428;SDS011;201;48.758;9.290;2023-01-28T00:53:37;0.20;;;0.10;;
428;SDS011;201;48.758;9.290;2023-01-28T00:56:03;0.20;;;0.10;;
428;SDS011;201;48.758;9.290;2023-01-28T00:58:31;0.20;;;0.10;;
428;SDS011;201;48.758;9.290;2023-01-28T01:01:05;0.20;;;0.10;;
428;SDS011;201;48.758;9.290;2023-01-28T01:03:50;0.20;;;0.10;;
428;SDS011;201;48.758;9.290;2023-01-28T01:06:21;0.20;;;0.10;;
428;SDS011;201;48.758;9.290;2023-01-28T01:08:48;0.20;;;0.10;;
428;SDS011;201;48.758;9.290;2023-01-28T01:11:14;0.20;;;0.10;;
428;SDS011;201;48.758;9.290;2023-01-28T01:13:40;0.20;;;0.10;;
428;SDS011;201;48.758;9.290;2023-01-28T01:16:07;0.20;;;0.10;;
428;SDS011;201;48.758;9.290;2023-01-28T01:18:37;0.20;;;0.10;;
428;SDS011;201;48.758;9.290;2023-01-28T01:21:09;0.20;;;0.10;;
428;SDS011;201;48.758;9.290;2023-01-28T01:23:39;0.20;;;0.10;;
428;SDS011;201;48.758;9.290;2023-01-28T01:26:06;0.20;;;0.10;;
428;SDS011;201;48.758;9.290;2023-01-28T01:28:31;0.15;;;0.08;;
428;SDS011;201;48.758;9.290;2023-01-28T01:31:01;0.20;;;0.10;;
428;SDS011;201;48.758;9.290;2023-01-28T01:33:28;0.20;;;0.10;;
428;SDS011;201;48.758;9.290;2023-01-28T01:35:55;0.20;;;0.10;;
428;SDS011;201;48.758;9.290;2023-01-28T01:38:22;0.10;;;0.05;;
428;SDS011;201;48.758;9.290;2023-01-28T01:40:47;0.00;;;0.00;;
428;SDS011;201;48.758;9.290;2023-01-28T01:43:20;0.20;;;0.10;;
428;SDS011;201;48.758;9.290;2023-01-28T01:45:48;0.20;;;0.10;;
428;SDS011;201;48.758;9.290;2023-01-28T01:48:27;0.20;;;0.10;;
428;SDS011;201;48.758;9.290;2023-01-28T01:51:02;0.20;;;0.10;;
428;SDS011;201;48.758;9.290;2023-01-28T01:53:36;0.20;;;0.10;;
428;SDS011;201;48.758;9.290;2023-01-28T01:56:10;0.20;;;0.10;;
428;SDS011;201;48.758;9.290;2023-01-28T01:58:38;0.20;;;0.10;;
428;SDS011;201;48.758;9.290;2023-01-28T02:01:07;0.20;;;0.10;;
428;SDS011;201;48.758;9.290;2023-01-28T02:03:46;0.20;;;0.10;;
428;SDS011;201;48.758;9.290;2023-01-28T02:06:30;0.20;;;0.10;;
428;SDS011;201;48.758;9.290;2023-01-28T02:08:57;0.20;;;0.10;;
428;SDS011;201;48.758;9.290;2023-01-28T02:11:24;0.20;;;0.10;;
428;SDS011;201;48.758;9.290;2023-01-28T02:13:53;0.20;;;0.10;;
428;SDS011;201;48.758;9.290;2023-01-28T02:16:21;0.20;;;0.10;;
428;SDS011;201;48.758;9.290;2023-01-28T02:18:48;0.20;;;0.10;;
428;SDS011;201;48.758;9.290;2023-01-28T02:21:20;0.20;;;0.10;;
428;SDS011;201;48.758;9.290;2023-01-28T02:27:08;0.20;;;0.10;;
428;SDS011;201;48.758;9.290;2023-01-28T02:32:28;0.20;;;0.10;;
428;SDS011;201;48.758;9.290;2023-01-28T02:34:58;0.20;;;0.10;;
428;SDS011;201;48.758;9.290;2023-01-28T02:37:42;0.20;;;0.10;;
428;SDS011;201;48.758;9.290;2023-01-28T02:40:11;0.20;;;0.10;;
428;SDS011;201;48.758;9.290;2023-01-28T02:42:46;0.20;;;0.10;;
428;SDS011;201;48.758;9.290;2023-01-28T02:47:48;0.20;;;0.10;;
428;SDS011;201;48.758;9.290;2023-01-28T02:50:21;0.20;;;0.10;;
428;SDS011;201;48.758;9.290;2023-01-28T02:52:55;0.00;;;0.00;;
428;SDS011;201;48.758;9.290;2023-01-28T02:58:24;0.20;;;0.10;;
428;SDS011;201;48.758;9.290;2023-01-28T03:01:09;0.20;;;0.10;;
428;SDS011;201;48.758;9.290;2023-01-28T03:03:57;0.20;;;0.10;;
428;SDS011;201;48.758;9.290;2023-01-28T03:06:36;0.20;;;0.10;;
428;SDS011;201;48.758;9.290;2023-01-28T03:09:06;0.20;;;0.10;;
428;SDS011;201;48.758;9.290;2023-01-28T03:11:57;0.20;;;0.10;;
428;SDS011;201;48.758;9.290;2023-01-28T03:14:44;0.20;;;0.10;;
428;SDS011;201;48.758;9.290;2023-01-28T03:17:40;0.20;;;0.10;;
428;SDS011;201;48.758;9.290;2023-01-28T03:20:40;0.20;;;0.10;;
428;SDS011;201;48.758;9.290;2023-01-28T03:27:01;0.20;;;0.10;;
428;SDS011;201;48.758;9.290;2023-01-28T03:29:55;0.20;;;0.10;;
428;SDS011;201;48.758;9.290;2023-01-28T03:32:41;0.20;;;0.10;;
428;SDS011;201;48.758;9.290;2023-01-28T03:35:27;0.20;;;0.10;;
428;SDS011;201;48.758;9.290;2023-01-28T03:38:14;0.20;;;0.10;;
428;SDS011;201;48.758;9.290;2023-01-28T03:43:23;0.20;;;0.10;;
428;SDS011;201;48.758;9.290;2023-01-28T03:45:49;0.20;;;0.10;;
428;SDS011;201;48.758;9.290;2023-01-28T03:48:20;0.20;;;0.10;;
428;SDS011;201;48.758;9.290;2023-01-28T03:50:47;0.20;;;0.10;;
428;SDS011;201;48.758;9.290;2023-01-28T03:53:14;0.20;;;0.10;;
428;SDS011;201;48.758;9.290;2023-01-28T03:55:43;0.20;;;0.10;;
428;SDS011;201;48.758;9.290;2023-01-28T03:58:09;0.20;;;0.10;;
428;SDS011;201;48.758;9.290;2023-01-28T04:00:36;0.20;;;0.10;;
428;SDS011;201;48.758;9.290;2023-01-28T04:03:05;0.20;;;0.10;;
428;SDS011;201;48.758;9.290;2023-01-28T04:05:45;0.20;;;0.10;;
428;SDS011;201;48.758;9.290;2023-01-28T04:08:31;0.20;;;0.10;;
428;SDS011;201;48.758;9.290;2023-01-28T04:10:56;0.20;;;0.10;;
428;SDS011;201;48.758;9.290;2023-01-28T04:13:22;0.20;;;0.10;;
428;SDS011;201;48.758;9.290;2023-01-28T04:15:48;0.20;;;0.10;;
428;SDS011;201;48.758;9.290;2023-01-28T04:18:14;0.20;;;0.10;;
428;SDS011;201;48.758;9.290;2023-01-28T04:20:39;0.20;;;0.10;;
428;SDS011;201;48.758;9.290;2023-01-28T04:23:05;0.20;;;0.10;;
428;SDS011;201;48.758;9.290;2023-01-28T04:25:35;0.20;;;0.10;;
428;SDS011;201;48.758;9.290;2023-01-28T04:28:00;0.20;;;0.10;;
428;SDS011;201;48.758;9.290;2023-01-28T04:30:26;0.20;;;0.10;;
428;SDS011;201;48.758;9.290;2023-01-28T04:32:52;0.20;;;0.10;;
428;SDS011;201;48.758;9.290;2023-01-28T04:35:18;0.20;;;0.10;;
428;SDS011;201;48.758;9.290;2023-01-28T04:37:43;0.13;;;0.07;;
428;SDS011;201;48.758;9.290;2023-01-28T04:40:10;0.00;;;0.00;;
428;SDS011;201;48.758;9.290;2023-01-28T04:42:37;0.20;;;0.10;;
428;SDS011;201;48.758;9.290;2023-01-28T04:45:02;0.00;;;0.00;;
428;SDS011;201;48.758;9.290;2023-01-28T04:47:29;0.15;;;0.08;;
428;SDS011;201;48.758;9.290;2023-01-28T04:49:54;0.20;;;0.10;;
428;SDS011;201;48.758;9.290;2023-01-28T04:52:20;0.00;;;0.00;;
428;SDS011;201;48.758;9.290;2023-01-28T04:54:45;0.00;;;0.00;;
428;SDS011;201;48.758;9.290;2023-01-28T04:57:11;0.20;;;0.10;;
428;SDS011;201;48.758;9.290;2023-01-28T04:59:36;0.20;;;0.10;;
428;SDS011;201;48.758;9.290;2023-01-28T05:02:02;0.20;;;0.10;;
428;SDS011;201;48.758;9.290;2023-01-28T05:04:27;0.20;;;0.10;;
428;SDS011;201;48.758;9.290;2023-01-28T05:06:53;0.13;;;0.07;;
428;SDS011;201;48.758;9.290;2023-01-28T05:09:18;0.20;;;0.10;;
428;SDS011;201;48.758;9.290;2023-01-28T05:11:44;0.13;;;0.07;;
428;SDS011;201;48.758;9.290;2023-01-28T05:14:09;0.00;;;0.00;;
428;SDS011;201;48.758;9.290;2023-01-28T05:16:35;0.00;;;0.00;;
428;SDS011;201;48.758;9.290;2023-01-28T05:19:01;0.07;;;0.03;;
428;SDS011;201;48.758;9.290;2023-01-28T05:21:27;0.20;;;0.10;;
428;SDS011;201;48.758;9.290;2023-01-28T05:23:52;0.20;;;0.10;;
428;SDS011;201;48.758;9.290;2023-01-28T05:26:18;0.20;;;0.10;;
428;SDS011;201;48.758;9.290;2023-01-28T05:28:44;0.20;;;0.10;;
428;SDS011;201;48.758;9.290;2023-01-28T05:31:09;0.20;;;0.10;;
428;SDS011;201;48.758;9.290;2023-01-28T05:33:35;0.20;;;0.10;;
428;SDS011;201;48.758;9.290;2023-01-28T05:36:01;0.20;;;0.10;;
428;SDS011;201;48.758;9.290;2023-01-28T05:38:28;0.20;;;0.10;;
428;SDS011;201;48.758;9.290;2023-01-28T05:40:53;0.00;;;0.00;;
428;SDS011;201;48.758;9.290;2023-01-28T05:43:19;0.20;;;0.10;;
428;SDS011;201;48.758;9.290;2023-01-28T05:45:45;0.20;;;0.10;;
428;SDS011;201;48.758;9.290;2023-01-28T05:48:11;0.20;;;0.10;;
428;SDS011;201;48.758;9.290;2023-01-28T05:50:37;0.20;;;0.10;;
428;SDS011;201;48.758;9.290;2023-01-28T05:53:06;0.20;;;0.10;;
428;SDS011;201;48.758;9.290;2023-01-28T05:55:32;0.20;;;0.10;;
428;SDS011;201;48.758;9.290;2023-01-28T05:57:57;0.20;;;0.10;;
428;SDS011;201;48.758;9.290;2023-01-28T06:00:23;0.20;;;0.10;;
428;SDS011;201;48.758;9.290;2023-01-28T06:02:50;0.20;;;0.10;;
428;SDS011;201;48.758;9.290;2023-01-28T06:05:16;0.00;;;0.00;;
428;SDS011;201;48.758;9.290;2023-01-28T06:07:45;0.20;;;0.10;;
428;SDS011;201;48.758;9.290;2023-01-28T06:10:11;0.20;;;0.10;;
428;SDS011;201;48.758;9.290;2023-01-28T06:12:38;0.20;;;0.10;;
428;SDS011;201;48.758;9.290;2023-01-28T06:15:04;0.20;;;0.10;;
428;SDS011;201;48.758;9.290;2023-01-28T06:17:30;0.20;;;0.10;;
428;SDS011;201;48.758;9.290;2023-01-28T06:19:55;0.20;;;0.10;;
428;SDS011;201;48.758;9.290;2023-01-28T06:22:21;0.20;;;0.10;;
428;SDS011;201;48.758;9.290;2023-01-28T06:24:46;0.20;;;0.10;;
428;SDS011;201;48.758;9.290;2023-01-28T06:27:12;0.20;;;0.10;;
428;SDS011;201;48.758;9.290;2023-01-28T06:29:38;0.20;;;0.10;;
428;SDS011;201;48.758;9.290;2023-01-28T06:32:04;0.20;;;0.10;;
428;SDS011;201;48.758;9.290;2023-01-28T06:34:29;0.20;;;0.10;;
428;SDS011;201;48.758;9.290;2023-01-28T06:36:55;0.20;;;0.10;;
428;SDS011;201;48.758;9.290;2023-01-28T06:39:21;0.20;;;0.10;;
428;SDS011;201;48.758;9.290;2023-01-28T06:41:47;0.20;;;0.10;;
428;SDS011;201;48.758;9.290;2023-01-28T06:44:13;0.20;;;0.10;;
428;SDS011;201;48.758;9.290;2023-01-28T06:46:39;0.20;;;0.10;;
428;SDS011;201;48.758;9.290;2023-01-28T06:49:04;0.20;;;0.10;;
428;SDS011;201;48.758;9.290;2023-01-28T06:51:30;0.20;;;0.10;;
428;SDS011;201;48.758;9.290;2023-01-28T06:53:56;0.20;;;0.10;;
428;SDS011;201;48.758;9.290;2023-01-28T06:56:21;0.20;;;0.10;;
428;SDS011;201;48.758;9.290;2023-01-28T06:58:47;0.20;;;0.10;;
428;SDS011;201;48.758;9.290;2023-01-28T07:01:12;0.20;;;0.10;;
428;SDS011;201;48.758;9.290;2023-01-28T07:03:38;0.20;;;0.10;;
428;SDS011;201;48.758;9.290;2023-01-28T07:06:04;0.20;;;0.10;;
428;SDS011;201;48.758;9.290;2023-01-28T07:08:29;0.20;;;0.10;;
428;SDS011;201;48.758;9.290;2023-01-28T07:10:55;0.20;;;0.10;;
428;SDS011;201;48.758;9.290;2023-01-28T07:13:21;0.20;;;0.10;;
428;SDS011;201;48.758;9.290;2023-01-28T07:15:46;0.20;;;0.10;;
428;SDS011;201;48.758;9.290;2023-01-28T07:18:13;0.20;;;0.10;;
428;SDS011;201;48.758;9.290;2023-01-28T07:20:38;0.20;;;0.10;;
428;SDS011;201;48.758;9.290;2023-01-28T07:23:04;0.20;;;0.10;;
428;SDS011;201;48.758;9.290;2023-01-28T07:25:29;0.20;;;0.10;;
428;SDS011;201;48.758;9.290;2023-01-28T07:27:55;0.20;;;0.10;;
428;SDS011;201;48.758;9.290;2023-01-28T07:30:21;0.20;;;0.10;;
428;SDS011;201;48.758;9.290;2023-01-28T07:32:51;0.20;;;0.10;;
428;SDS011;201;48.758;9.290;2023-01-28T07:35:18;0.20;;;0.10;;
428;SDS011;201;48.758;9.290;2023-01-28T07:37:49;0.20;;;0.10;;
428;SDS011;201;48.758;9.290;2023-01-28T07:40:19;0.20;;;0.10;;
428;SDS011;201;48.758;9.290;2023-01-28T07:42:45;0.20;;;0.10;;
428;SDS011;201;48.758;9.290;2023-01-28T07:45:11;0.20;;;0.10;;
428;SDS011;201;48.758;9.290;2023-01-28T07:47:37;0.20;;;0.10;;
428;SDS011;201;48.758;9.290;2023-01-28T07:50:02;0.13;;;0.07;;
428;SDS011;201;48.758;9.290;2023-01-28T07:52:28;0.20;;;0.10;;
428;SDS011;201;48.758;9.290;2023-01-28T07:54:54;0.20;;;0.10;;
428;SDS011;201;48.758;9.290;2023-01-28T07:57:19;0.00;;;0.00;;
428;SDS011;201;48.758;9.290;2023-01-28T07:59:50;0.10;;;0.05;;
428;SDS011;201;48.758;9.290;2023-01-28T08:02:16;0.20;;;0.10;;
428;SDS011;201;48.758;9.290;2023-01-28T08:04:42;0.20;;;0.10;;
428;SDS011;201;48.758;9.290;2023-01-28T08:07:08;0.00;;;0.00;;
428;SDS011;201;48.758;9.290;2023-01-28T08:09:33;0.20;;;0.10;;
428;SDS011;201;48.758;9.290;2023-01-28T08:12:02;0.20;;;0.10;;
428;SDS011;201;48.758;9.290;2023-01-28T08:14:27;0.15;;;0.08;;
428;SDS011;201;48.758;9.290;2023-01-28T08:16:53;0.20;;;0.10;;
428;SDS011;201;48.758;9.290;2023-01-28T08:19:18;0.20;;;0.10;;
428;SDS011;201;48.758;9.290;2023-01-28T08:21:48;0.20;;;0.10;;
428;SDS011;201;48.758;9.290;2023-01-28T08:24:15;0.20;;;0.10;;
428;SDS011;201;48.758;9.290;2023-01-28T08:26:41;0.20;;;0.10;;
428;SDS011;201;48.758;9.290;2023-01-28T08:29:07;0.15;;;0.08;;
428;SDS011;201;48.758;9.290;2023-01-28T08:31:33;0.20;;;0.10;;
428;SDS011;201;48.758;9.290;2023-01-28T08:33:59;0.07;;;0.03;;
428;SDS011;201;48.758;9.290;2023-01-28T08:36:24;0.20;;;0.10;;
428;SDS011;201;48.758;9.290;2023-01-28T08:38:50;0.00;;;0.00;;
428;SDS011;201;48.758;9.290;2023-01-28T08:41:19;0.10;;;0.10;;
428;SDS011;201;48.758;9.290;2023-01-28T08:43:47;0.00;;;0.00;;
428;SDS011;201;48.758;9.290;2023-01-28T08:46:14;0.00;;;0.00;;
428;SDS011;201;48.758;9.290;2023-01-28T08:48:39;0.20;;;0.10;;
428;SDS011;201;48.758;9.290;2023-01-28T08:51:05;0.00;;;0.00;;
428;SDS011;201;48.758;9.290;2023-01-28T08:53:31;0.00;;;0.00;;
428;SDS011;201;48.758;9.290;2023-01-28T08:55:56;0.00;;;0.00;;
428;SDS011;201;48.758;9.290;2023-01-28T08:58:22;0.00;;;0.00;;
428;SDS011;201;48.758;9.290;2023-01-28T09:00:47;0.20;;;0.10;;
428;SDS011;201;48.758;9.290;2023-01-28T09:03:14;0.00;;;0.00;;
428;SDS011;201;48.758;9.290;2023-01-28T09:05:40;0.00;;;0.00;;
428;SDS011;201;48.758;9.290;2023-01-28T09:08:07;0.00;;;0.00;;
428;SDS011;201;48.758;9.290;2023-01-28T09:10:34;0.00;;;0.00;;
428;SDS011;201;48.758;9.290;2023-01-28T09:13:07;0.20;;;0.10;;
428;SDS011;201;48.758;9.290;2023-01-28T09:15:34;0.00;;;0.00;;
428;SDS011;201;48.758;9.290;2023-01-28T09:18:01;0.20;;;0.10;;
428;SDS011;201;48.758;9.290;2023-01-28T09:20:27;0.00;;;0.00;;
428;SDS011;201;48.758;9.290;2023-01-28T09:22:53;0.00;;;0.00;;
428;SDS011;201;48.758;9.290;2023-01-28T09:25:18;0.00;;;0.00;;
428;SDS011;201;48.758;9.290;2023-01-28T09:27:44;0.00;;;0.00;;
428;SDS011;201;48.758;9.290;2023-01-28T09:30:09;0.00;;;0.00;;
428;SDS011;201;48.758;9.290;2023-01-28T09:32:37;0.00;;;0.00;;
428;SDS011;201;48.758;9.290;2023-01-28T09:35:03;0.00;;;0.00;;
428;SDS011;201;48.758;9.290;2023-01-28T09:37:29;0.00;;;0.00;;
428;SDS011;201;48.758;9.290;2023-01-28T09:39:55;0.00;;;0.00;;
428;SDS011;201;48.758;9.290;2023-01-28T09:45:11;0.00;;;0.00;;
428;SDS011;201;48.758;9.290;2023-01-28T09:47:45;0.00;;;0.00;;
428;SDS011;201;48.758;9.290;2023-01-28T09:50:17;0.00;;;0.00;;
428;SDS011;201;48.758;9.290;2023-01-28T09:52:56;0.00;;;0.00;;
428;SDS011;201;48.758;9.290;2023-01-28T09:55:35;0.00;;;0.00;;
428;SDS011;201;48.758;9.290;2023-01-28T09:58:12;0.00;;;0.00;;
428;SDS011;201;48.758;9.290;2023-01-28T10:01:01;0.00;;;0.00;;
428;SDS011;201;48.758;9.290;2023-01-28T10:06:39;0.00;;;0.00;;
428;SDS011;201;48.758;9.290;2023-01-28T10:12:15;0.00;;;0.00;;
428;SDS011;201;48.758;9.290;2023-01-28T10:17:49;0.00;;;0.00;;
428;SDS011;201;48.758;9.290;2023-01-28T10:20:20;0.00;;;0.00;;
428;SDS011;201;48.758;9.290;2023-01-28T10:22:53;0.00;;;0.00;;
428;SDS011;201;48.758;9.290;2023-01-28T10:25:28;0.00;;;0.00;;
428;SDS011;201;48.758;9.290;2023-01-28T10:27:55;0.00;;;0.00;;
428;SDS011;201;48.758;9.290;2023-01-28T10:30:29;0.00;;;0.00;;
428;SDS011;201;48.758;9.290;2023-01-28T10:33:04;0.00;;;0.00;;
428;SDS011;201;48.758;9.290;2023-01-28T10:35:36;0.00;;;0.00;;
428;SDS011;201;48.758;9.290;2023-01-28T10:38:05;0.00;;;0.00;;
428;SDS011;201;48.758;9.290;2023-01-28T10:40:36;0.00;;;0.00;;
428;SDS011;201;48.758;9.290;2023-01-28T10:43:05;0.00;;;0.00;;
428;SDS011;201;48.758;9.290;2023-01-28T10:45:36;0.00;;;0.00;;
428;SDS011;201;48.758;9.290;2023-01-28T10:48:16;0.00;;;0.00;;
428;SDS011;201;48.758;9.290;2023-01-28T10:50:51;0.00;;;0.00;;
428;SDS011;201;48.758;9.290;2023-01-28T10:53:17;0.00;;;0.00;;
428;SDS011;201;48.758;9.290;2023-01-28T10:55:51;0.00;;;0.00;;
428;SDS011;201;48.758;9.290;2023-01-28T10:58:26;0.00;;;0.00;;
428;SDS011;201;48.758;9.290;2023-01-28T11:00:54;0.00;;;0.00;;
428;SDS011;201;48.758;9.290;2023-01-28T11:03:23;0.00;;;0.00;;
428;SDS011;201;48.758;9.290;2023-01-28T11:05:53;0.00;;;0.00;;
428;SDS011;201;48.758;9.290;2023-01-28T11:08:20;0.00;;;0.00;;
428;SDS011;201;48.758;9.290;2023-01-28T11:10:46;0.00;;;0.00;;
428;SDS011;201;48.758;9.290;2023-01-28T11:13:20;0.00;;;0.00;;
428;SDS011;201;48.758;9.290;2023-01-28T11:15:58;0.00;;;0.00;;
428;SDS011;201;48.758;9.290;2023-01-28T11:18:30;0.00;;;0.00;;
428;SDS011;201;48.758;9.290;2023-01-28T11:21:00;0.00;;;0.00;;
428;SDS011;201;48.758;9.290;2023-01-28T11:23:30;0.00;;;0.00;;
428;SDS011;201;48.758;9.290;2023-01-28T11:26:06;0.00;;;0.00;;
428;SDS011;201;48.758;9.290;2023-01-28T11:28:41;0.00;;;0.00;;
428;SDS011;201;48.758;9.290;2023-01-28T11:31:08;0.00;;;0.00;;
428;SDS011;201;48.758;9.290;2023-01-28T11:33:37;0.20;;;0.10;;
428;SDS011;201;48.758;9.290;2023-01-28T11:36:15;0.00;;;0.00;;
428;SDS011;201;48.758;9.290;2023-01-28T11:38:46;0.00;;;0.00;;
428;SDS011;201;48.758;9.290;2023-01-28T11:41:16;0.00;;;0.00;;
428;SDS011;201;48.758;9.290;2023-01-28T11:43:47;0.00;;;0.00;;
428;SDS011;201;48.758;9.290;2023-01-28T11:54:55;0.00;;;0.00;;
428;SDS011;201;48.758;9.290;2023-01-28T11:57:16;0.00;;;0.00;;
428;SDS011;201;48.758;9.290;2023-01-28T12:02:45;0.00;;;0.00;;
428;SDS011;201;48.758;9.290;2023-01-28T12:08:14;0.00;;;0.00;;
428;SDS011;201;48.758;9.290;2023-01-28T12:13:59;0.00;;;0.00;;
428;SDS011;201;48.758;9.290;2023-01-28T12:16:39;0.00;;;0.00;;
428;SDS011;201;48.758;9.290;2023-01-28T12:20:01;0.00;;;0.00;;
428;SDS011;201;48.758;9.290;2023-01-28T12:41:34;0.00;;;0.00;;
428;SDS011;201;48.758;9.290;2023-01-28T12:44:04;0.00;;;0.00;;
428;SDS011;201;48.758;9.290;2023-01-28T12:46:37;0.00;;;0.00;;
428;SDS011;201;48.758;9.290;2023-01-28T12:49:16;0.00;;;0.00;;
428;SDS011;201;48.758;9.290;2023-01-28T12:51:48;0.00;;;0.00;;
428;SDS011;201;48.758;9.290;2023-01-28T12:54:36;0.00;;;0.00;;
428;SDS011;201;48.758;9.290;2023-01-28T12:57:27;0.00;;;0.00;;
428;SDS011;201;48.758;9.290;2023-01-28T13:00:02;0.00;;;0.00;;
428;SDS011;201;48.758;9.290;2023-01-28T13:02:31;0.00;;;0.00;;
428;SDS011;201;48.758;9.290;2023-01-28T13:05:10;0.00;;;0.00;;
428;SDS011;201;48.758;9.290;2023-01-28T13:07:43;0.20;;;0.10;;
428;SDS011;201;48.758;9.290;2023-01-28T13:10:26;0.20;;;0.10;;
428;SDS011;201;48.758;9.290;2023-01-28T13:12:56;0.00;;;0.00;;
428;SDS011;201;48.758;9.290;2023-01-28T13:15:23;0.00;;;0.00;;
428;SDS011;201;48.758;9.290;2023-01-28T13:18:02;0.00;;;0.00;;
428;SDS011;201;48.758;9.290;2023-01-28T13:23:02;0.00;;;0.00;;
428;SDS011;201;48.758;9.290;2023-01-28T13:25:31;0.00;;;0.00;;
428;SDS011;201;48.758;9.290;2023-01-28T13:27:59;0.00;;;0.00;;
428;SDS011;201;48.758;9.290;2023-01-28T13:30:31;0.00;;;0.00;;
428;SDS011;201;48.758;9.290;2023-01-28T13:33:02;0.00;;;0.00;;
428;SDS011;201;48.758;9.290;2023-01-28T13:35:38;0.00;;;0.00;;
428;SDS011;201;48.758;9.290;2023-01-28T13:38:08;0.00;;;0.00;;
428;SDS011;201;48.758;9.290;2023-01-28T13:40:42;0.00;;;0.00;;
428;SDS011;201;48.758;9.290;2023-01-28T13:46:08;0.00;;;0.00;;
428;SDS011;201;48.758;9.290;2023-01-28T13:51:04;0.00;;;0.00;;
428;SDS011;201;48.758;9.290;2023-01-28T13:53:43;0.00;;;0.00;;
428;SDS011;201;48.758;9.290;2023-01-28T13:56:22;0.00;;;0.00;;
428;SDS011;201;48.758;9.290;2023-01-28T14:04:21;0.00;;;0.00;;
428;SDS011;201;48.758;9.290;2023-01-28T14:07:35;0.20;;;0.10;;
428;SDS011;201;48.758;9.290;2023-01-28T14:10:22;0.00;;;0.00;;
428;SDS011;201;48.758;9.290;2023-01-28T14:13:10;0.00;;;0.00;;
428;SDS011;201;48.758;9.290;2023-01-28T14:18:24;0.20;;;0.10;;
428;SDS011;201;48.758;9.290;2023-01-28T14:20:50;0.00;;;0.00;;
428;SDS011;201;48.758;9.290;2023-01-28T14:23:19;0.00;;;0.00;;
428;SDS011;201;48.758;9.290;2023-01-28T14:25:55;0.20;;;0.10;;
428;SDS011;201;48.758;9.290;2023-01-28T14:31:15;0.00;;;0.00;;
428;SDS011;201;48.758;9.290;2023-01-28T14:33:48;0.00;;;0.00;;
428;SDS011;201;48.758;9.290;2023-01-28T14:36:14;0.00;;;0.00;;
428;SDS011;201;48.758;9.290;2023-01-28T14:38:40;0.00;;;0.00;;
428;SDS011;201;48.758;9.290;2023-01-28T14:41:09;0.00;;;0.00;;
428;SDS011;201;48.758;9.290;2023-01-28T14:43:47;0.00;;;0.00;;
428;SDS011;201;48.758;9.290;2023-01-28T14:46:18;0.00;;;0.00;;
428;SDS011;201;48.758;9.290;2023-01-28T14:57:07;0.00;;;0.00;;
428;SDS011;201;48.758;9.290;2023-01-28T14:59:55;0.00;;;0.00;;
428;SDS011;201;48.758;9.290;2023-01-28T15:02:32;0.00;;;0.00;;
428;SDS011;201;48.758;9.290;2023-01-28T15:05:08;0.20;;;0.10;;
428;SDS011;201;48.758;9.290;2023-01-28T15:07:35;0.00;;;0.00;;
428;SDS011;201;48.758;9.290;2023-01-28T15:13:14;0.00;;;0.00;;
428;SDS011;201;48.758;9.290;2023-01-28T15:15:49;0.00;;;0.00;;
428;SDS011;201;48.758;9.290;2023-01-28T15:18:16;0.00;;;0.00;;
428;SDS011;201;48.758;9.290;2023-01-28T15:20:45;0.00;;;0.00;;
428;SDS011;201;48.758;9.290;2023-01-28T15:23:14;0.00;;;0.00;;
428;SDS011;201;48.758;9.290;2023-01-28T15:25:41;0.00;;;0.00;;
428;SDS011;201;48.758;9.290;2023-01-28T15:28:08;0.00;;;0.00;;
428;SDS011;201;48.758;9.290;2023-01-28T15:30:43;0.00;;;0.00;;
428;SDS011;201;48.758;9.290;2023-01-28T15:33:12;0.00;;;0.00;;
428;SDS011;201;48.758;9.290;2023-01-28T15:35:53;0.00;;;0.00;;
428;SDS011;201;48.758;9.290;2023-01-28T15:38:20;0.00;;;0.00;;
428;SDS011;201;48.758;9.290;2023-01-28T15:40:48;0.00;;;0.00;;
428;SDS011;201;48.758;9.290;2023-01-28T15:43:22;0.00;;;0.00;;
428;SDS011;201;48.758;9.290;2023-01-28T15:45:51;0.05;;;0.03;;
428;SDS011;201;48.758;9.290;2023-01-28T15:48:19;0.20;;;0.10;;
428;SDS011;201;48.758;9.290;2023-01-28T15:50:47;0.00;;;0.00;;
428;SDS011;201;48.758;9.290;2023-01-28T15:53:29;0.20;;;0.10;;
428;SDS011;201;48.758;9.290;2023-01-28T15:56:05;0.00;;;0.00;;
428;SDS011;201;48.758;9.290;2023-01-28T15:58:32;0.00;;;0.00;;
428;SDS011;201;48.758;9.290;2023-01-28T16:03:32;0.00;;;0.00;;
428;SDS011;201;48.758;9.290;2023-01-28T16:06:01;0.00;;;0.00;;
428;SDS011;201;48.758;9.290;2023-01-28T16:11:22;0.00;;;0.00;;
428;SDS011;201;48.758;9.290;2023-01-28T16:13:54;0.00;;;0.00;;
428;SDS011;201;48.758;9.290;2023-01-28T16:16:28;0.00;;;0.00;;
428;SDS011;201;48.758;9.290;2023-01-28T16:18:58;0.20;;;0.10;;
428;SDS011;201;48.758;9.290;2023-01-28T16:21:28;0.00;;;0.00;;
428;SDS011;201;48.758;9.290;2023-01-28T16:24:19;0.20;;;0.10;;
428;SDS011;201;48.758;9.290;2023-01-28T16:26:57;0.20;;;0.10;;
428;SDS011;201;48.758;9.290;2023-01-28T16:29:25;0.20;;;0.10;;
428;SDS011;201;48.758;9.290;2023-01-28T16:31:51;0.05;;;0.03;;
428;SDS011;201;48.758;9.290;2023-01-28T16:34:17;0.00;;;0.00;;
428;SDS011;201;48.758;9.290;2023-01-28T16:36:43;0.20;;;0.10;;
428;SDS011;201;48.758;9.290;2023-01-28T16:39:08;0.20;;;0.10;;
428;SDS011;201;48.758;9.290;2023-01-28T16:41:37;0.00;;;0.00;;
428;SDS011;201;48.758;9.290;2023-01-28T16:44:12;0.00;;;0.00;;
428;SDS011;201;48.758;9.290;2023-01-28T16:46:38;0.00;;;0.00;;
428;SDS011;201;48.758;9.290;2023-01-28T16:49:04;0.00;;;0.00;;
428;SDS011;201;48.758;9.290;2023-01-28T16:51:29;0.20;;;0.10;;
428;SDS011;201;48.758;9.290;2023-01-28T16:53:56;0.00;;;0.00;;
428;SDS011;201;48.758;9.290;2023-01-28T16:56:23;0.00;;;0.00;;
428;SDS011;201;48.758;9.290;2023-01-28T16:58:51;0.00;;;0.00;;
428;SDS011;201;48.758;9.290;2023-01-28T17:01:17;0.00;;;0.00;;
428;SDS011;201;48.758;9.290;2023-01-28T17:03:42;0.20;;;0.10;;
428;SDS011;201;48.758;9.290;2023-01-28T17:06:08;0.00;;;0.00;;
428;SDS011;201;48.758;9.290;2023-01-28T17:08:40;0.00;;;0.00;;
428;SDS011;201;48.758;9.290;2023-01-28T17:11:05;0.00;;;0.00;;
428;SDS011;201;48.758;9.290;2023-01-28T17:13:31;0.00;;;0.00;;
428;SDS011;201;48.758;9.290;2023-01-28T17:15:59;0.00;;;0.00;;
428;SDS011;201;48.758;9.290;2023-01-28T17:18:26;0.20;;;0.10;;
428;SDS011;201;48.758;9.290;2023-01-28T17:20:52;0.00;;;0.00;;
428;SDS011;201;48.758;9.290;2023-01-28T17:23:17;0.00;;;0.00;;
428;SDS011;201;48.758;9.290;2023-01-28T17:25:47;0.00;;;0.00;;
428;SDS011;201;48.758;9.290;2023-01-28T17:28:12;0.00;;;0.00;;
428;SDS011;201;48.758;9.290;2023-01-28T17:30:39;0.00;;;0.00;;
428;SDS011;201;48.758;9.290;2023-01-28T17:33:05;0.00;;;0.00;;
428;SDS011;201;48.758;9.290;2023-01-28T17:35:31;0.00;;;0.00;;
428;SDS011;201;48.758;9.290;2023-01-28T17:37:59;0.00;;;0.00;;
428;SDS011;201;48.758;9.290;2023-01-28T17:40:26;0.00;;;0.00;;
428;SDS011;201;48.758;9.290;2023-01-28T17:42:51;0.00;;;0.00;;